Time;durP1;ratioP1;P1;durP2;ratioP2;P2;SDS_P1;SDS_P2;PMS_P1;PMS_P2;Temp;Humidity;BMP_temperature;BMP_pressure;BME280_temperature;BME280_humidity;BME280_pressure;Samples;Min_cycle;Max_cycle;Signal;HPM_P1;HPM_P2
2024/01/28 00:01:33;;;;;;;2.97;0.83;;;;;;;2.41;100.00;103038.03;5074432;28;20493;-73
2024/01/28 00:04:00;;;;;;;4.30;0.70;;;;;;;2.34;100.00;103041.63;5073751;28;20941;-73
2024/01/28 00:06:27;;;;;;;1.97;0.63;;;;;;;2.18;100.00;103053.34;5074391;28;20524;-73
2024/01/28 00:08:55;;;;;;;1.67;0.53;;;;;;;2.22;100.00;103049.28;5074004;28;20434;-72
2024/01/28 00:11:21;;;;;;;2.03;0.80;;;;;;;2.09;100.00;103049.94;5073413;28;20528;-71
2024/01/28 00:13:48;;;;;;;2.37;1.00;;;;;;;1.95;100.00;103050.75;5074235;28;20451;-71
2024/01/28 00:16:15;;;;;;;1.90;0.87;;;;;;;1.90;100.00;103045.94;5074236;28;20441;-71
2024/01/28 00:18:41;;;;;;;4.40;1.33;;;;;;;1.89;100.00;103038.09;5073461;28;21060;-71
2024/01/28 00:21:08;;;;;;;4.97;2.00;;;;;;;1.83;100.00;103033.50;5074126;28;20520;-71
2024/01/28 00:23:35;;;;;;;3.70;1.00;;;;;;;1.79;100.00;103032.19;5073811;28;20541;-71
2024/01/28 00:26:03;;;;;;;2.40;1.00;;;;;;;1.67;100.00;103032.63;5073532;28;20472;-71
2024/01/28 00:28:29;;;;;;;1.60;0.40;;;;;;;1.60;100.00;103034.38;5073799;28;20821;-71
2024/01/28 00:30:56;;;;;;;3.43;1.53;;;;;;;1.54;100.00;103040.41;5074096;28;20910;-72
2024/01/28 00:33:23;;;;;;;2.33;0.60;;;;;;;1.52;100.00;103039.78;5073348;28;20539;-72
2024/01/28 00:35:50;;;;;;;3.67;0.87;;;;;;;1.45;100.00;103038.84;5073830;28;20540;-72
2024/01/28 00:38:16;;;;;;;1.77;0.60;;;;;;;1.33;100.00;103033.09;5073266;28;20576;-72
2024/01/28 00:40:43;;;;;;;2.67;0.90;;;;;;;1.35;100.00;103025.72;5073683;28;20532;-72
2024/01/28 00:43:11;;;;;;;1.73;0.70;;;;;;;1.37;100.00;103022.88;5073494;28;20515;-72
2024/01/28 00:45:40;;;;;;;2.13;1.10;;;;;;;1.27;100.00;103018.59;5073164;28;20445;-72
2024/01/28 00:48:07;;;;;;;1.60;0.40;;;;;;;1.23;100.00;103029.81;5073904;28;20513;-72
2024/01/28 00:50:34;;;;;;;2.13;0.80;;;;;;;1.19;100.00;103024.00;5073190;28;20837;-72
2024/01/28 00:53:00;;;;;;;2.30;0.87;;;;;;;1.14;100.00;103029.03;5073108;28;20822;-73
2024/01/28 00:55:28;;;;;;;6.87;1.60;;;;;;;1.10;100.00;103033.06;5073418;28;20488;-73
2024/01/28 00:57:55;;;;;;;1.70;0.60;;;;;;;1.09;100.00;103042.09;5073249;28;20477;-73
2024/01/28 01:00:23;;;;;;;1.83;0.80;;;;;;;1.12;100.00;103041.75;5073449;28;20536;-73
2024/01/28 01:02:52;;;;;;;1.70;0.50;;;;;;;0.97;100.00;103046.16;5073410;28;20469;-73
2024/01/28 01:05:18;;;;;;;1.80;0.80;;;;;;;0.95;100.00;103050.88;5073708;28;20441;-73
2024/01/28 01:07:45;;;;;;;2.10;1.00;;;;;;;0.86;100.00;103052.75;5073403;28;20505;-72
2024/01/28 01:10:12;;;;;;;2.90;0.80;;;;;;;0.90;100.00;103047.91;5073334;28;20441;-73
2024/01/28 01:12:38;;;;;;;2.70;1.37;;;;;;;0.86;100.00;103044.75;5072968;28;20473;-73
2024/01/28 01:15:06;;;;;;;2.60;1.00;;;;;;;0.83;100.00;103037.09;5073293;28;20531;-72
2024/01/28 01:17:34;;;;;;;2.80;1.87;;;;;;;0.78;100.00;103033.28;5073191;28;20469;-73
2024/01/28 01:20:01;;;;;;;4.73;1.80;;;;;;;0.69;100.00;103030.66;5073472;28;20473;-73
2024/01/28 01:22:27;;;;;;;2.27;0.50;;;;;;;0.69;100.00;103027.16;5073060;28;20473;-73
2024/01/28 01:24:54;;;;;;;1.87;0.40;;;;;;;0.69;100.00;103022.66;5076828;28;20441;-73
2024/01/28 01:27:20;;;;;;;1.93;0.70;;;;;;;0.72;100.00;103024.97;5077142;28;20457;-73
2024/01/28 01:29:47;;;;;;;1.57;0.37;;;;;;;0.64;100.00;103035.69;5077034;28;20500;-73
2024/01/28 01:32:14;;;;;;;2.07;0.70;;;;;;;0.65;100.00;103029.34;5077306;28;20492;-73
2024/01/28 01:34:42;;;;;;;3.00;1.53;;;;;;;0.73;100.00;103039.97;5077017;28;20504;-73
2024/01/28 01:37:09;;;;;;;2.00;0.80;;;;;;;0.70;100.00;103036.81;5077158;28;20520;-73
2024/01/28 01:39:36;;;;;;;4.00;0.70;;;;;;;0.64;100.00;103037.53;5076450;28;20921;-73
2024/01/28 01:42:03;;;;;;;1.67;0.57;;;;;;;0.65;100.00;103041.84;5077354;28;20467;-73
2024/01/28 01:44:29;;;;;;;2.10;0.93;;;;;;;0.70;100.00;103036.81;5076561;28;20477;-73
2024/01/28 01:46:56;;;;;;;1.60;0.40;;;;;;;0.73;100.00;103041.81;5076793;28;20473;-73
2024/01/28 01:49:23;;;;;;;1.77;0.40;;;;;;;0.68;100.00;103030.84;5076456;28;20512;-71
2024/01/28 01:51:51;;;;;;;2.60;1.63;;;;;;;0.67;100.00;103031.84;5076523;28;20515;-72
2024/01/28 01:54:18;;;;;;;4.70;0.80;;;;;;;0.73;100.00;103037.31;5076869;28;20490;-72
2024/01/28 01:56:45;;;;;;;1.83;0.63;;;;;;;0.78;100.00;103044.78;5076610;28;20444;-72
2024/01/28 01:59:12;;;;;;;4.43;1.23;;;;;;;0.78;100.00;103046.63;5076482;28;20487;-72
2024/01/28 02:01:39;;;;;;;1.60;0.47;;;;;;;0.73;100.00;103041.81;5076157;28;20964;-72
2024/01/28 02:04:06;;;;;;;2.63;1.13;;;;;;;0.61;100.00;103038.69;5076327;28;20431;-72
2024/01/28 02:06:33;;;;;;;2.47;1.30;;;;;;;0.69;100.00;103040.50;5076362;28;20516;-72
2024/01/28 02:09:01;;;;;;;2.17;1.43;;;;;;;0.72;100.00;103040.16;5076353;28;20468;-71
2024/01/28 02:11:28;;;;;;;2.00;0.90;;;;;;;0.73;100.00;103037.31;5076150;28;20528;-71
2024/01/28 02:13:54;;;;;;;3.23;1.50;;;;;;;0.69;100.00;103041.31;5075978;28;20925;-72
2024/01/28 02:16:21;;;;;;;1.80;0.70;;;;;;;0.72;100.00;103045.50;5076858;28;20433;-73
2024/01/28 02:18:47;;;;;;;2.10;1.17;;;;;;;0.63;100.00;103033.22;5075779;28;20489;-73
2024/01/28 02:21:14;;;;;;;1.57;0.40;;;;;;;0.48;100.00;103043.75;5076356;28;20514;-73
2024/01/28 02:23:42;;;;;;;2.10;0.57;;;;;;;0.41;100.00;103045.47;5075765;28;20437;-73
2024/01/28 02:26:09;;;;;;;2.13;1.33;;;;;;;0.37;100.00;103041.47;5076126;28;20477;-73
2024/01/28 02:28:36;;;;;;;3.30;1.97;;;;;;;0.33;100.00;103045.50;5076514;28;20445;-73
2024/01/28 02:31:02;;;;;;;3.73;2.43;;;;;;;0.34;100.00;103033.81;5075864;28;20465;-72
2024/01/28 02:33:29;;;;;;;1.90;0.77;;;;;;;0.35;100.00;103027.47;5075970;28;20552;-73
2024/01/28 02:35:55;;;;;;;3.90;1.53;;;;;;;0.35;100.00;103019.47;5075559;28;20873;-73
2024/01/28 02:38:22;;;;;;;2.17;0.50;;;;;;;0.35;100.00;103014.16;5076213;28;20487;-73
2024/01/28 02:40:52;;;;;;;1.80;0.83;;;;;;;0.38;100.00;103019.97;5075959;28;20567;-73
2024/01/28 02:43:18;;;;;;;23.83;2.93;;;;;;;0.32;100.00;103020.66;5075613;28;20472;-73
2024/01/28 02:45:45;;;;;;;3.33;1.10;;;;;;;0.33;100.00;103016.16;5075256;28;20451;-73
2024/01/28 02:48:12;;;;;;;1.60;0.40;;;;;;;0.27;100.00;103020.38;5075621;28;20528;-72
2024/01/28 02:50:38;;;;;;;2.37;1.37;;;;;;;0.25;100.00;103028.50;5075970;28;20460;-73
2024/01/28 02:53:05;;;;;;;1.60;0.40;;;;;;;0.23;100.00;103024.38;5075375;28;20553;-73
2024/01/28 02:55:31;;;;;;;2.17;1.37;;;;;;;0.24;100.00;103023.38;5075586;28;20858;-73
2024/01/28 02:57:59;;;;;;;3.70;2.40;;;;;;;0.25;100.00;103023.19;5075103;28;20480;-73
2024/01/28 03:00:26;;;;;;;4.30;1.17;;;;;;;0.23;100.00;103022.53;5075307;28;20929;-73
2024/01/28 03:02:53;;;;;;;2.13;1.03;;;;;;;0.16;100.00;103026.03;5075342;28;20527;-73
2024/01/28 03:05:20;;;;;;;3.70;1.27;;;;;;;0.12;100.00;103014.88;5076008;28;20520;-73
2024/01/28 03:07:46;;;;;;;1.80;0.80;;;;;;;0.12;100.00;103009.56;5076050;28;20524;-73
2024/01/28 03:10:13;;;;;;;2.90;0.60;;;;;;;0.23;100.00;103013.72;5075660;28;20438;-72
2024/01/28 03:12:39;;;;;;;3.30;1.70;;;;;;;0.27;100.00;103014.16;5075147;28;20487;-72
2024/01/28 03:15:09;;;;;;;1.80;0.60;;;;;;;0.24;100.00;103012.69;5075404;28;20484;-72
2024/01/28 03:17:37;;;;;;;2.80;1.90;;;;;;;0.25;100.00;103017.03;5075105;28;20441;-72
2024/01/28 03:20:04;;;;;;;2.20;1.00;;;;;;;0.17;100.00;103017.88;5075349;28;20491;-72
2024/01/28 03:22:30;;;;;;;2.13;0.60;;;;;;;0.20;100.00;103006.06;5075021;28;20461;-72
2024/01/28 03:24:57;;;;;;;2.07;1.27;;;;;;;0.25;100.00;103007.19;5074957;28;20540;-71
2024/01/28 03:27:24;;;;;;;1.60;0.40;;;;;;;0.28;100.00;103013.19;5075205;28;20532;-72
2024/01/28 03:29:49;;;;;;;2.47;1.07;;;;;;;0.28;100.00;103015.84;5074607;28;20850;-72
2024/01/28 03:32:17;;;;;;;2.33;1.43;;;;;;;0.19;100.00;103015.88;5074730;28;20489;-72
2024/01/28 03:34:44;;;;;;;1.80;0.80;;;;;;;0.18;100.00;103013.41;5074668;28;20199;-72
2024/01/28 03:37:10;;;;;;;1.57;0.40;;;;;;;0.18;100.00;103010.72;5074730;28;20476;-72
2024/01/28 03:39:37;;;;;;;1.57;0.40;;;;;;;0.18;100.00;103006.22;5074552;28;20483;-72
2024/01/28 03:42:04;;;;;;;2.40;1.33;;;;;;;0.15;100.00;103003.91;5074225;28;21016;-72
2024/01/28 03:44:31;;;;;;;1.87;1.03;;;;;;;0.19;100.00;103002.56;5074268;28;20449;-72
2024/01/28 03:46:58;;;;;;;1.70;0.63;;;;;;;0.19;100.00;103015.06;5073593;28;20468;-71
2024/01/28 03:49:27;;;;;;;2.10;0.93;;;;;;;0.14;100.00;103015.56;5074391;28;20530;-71
2024/01/28 03:51:53;;;;;;;2.90;0.73;;;;;;;0.07;100.00;103014.59;5074385;28;21034;-73
2024/01/28 03:54:20;;;;;;;1.70;0.47;;;;;;;0.03;100.00;103007.94;5074315;28;20925;-73
2024/01/28 03:56:47;;;;;;;2.90;0.93;;;;;;;0.09;100.00;103007.25;5074639;28;20441;-73
2024/01/28 03:59:13;;;;;;;2.77;1.23;;;;;;;0.09;100.00;103001.94;5074353;28;20484;-73
2024/01/28 04:01:40;;;;;;;2.10;0.73;;;;;;;-0.02;100.00;102999.63;5074284;28;20457;-73
2024/01/28 04:04:07;;;;;;;1.70;0.50;;;;;;;-0.06;100.00;102998.28;5074530;28;20440;-72
2024/01/28 04:06:41;;;;;;;1.60;0.50;;;;;;;-0.08;100.00;102995.00;5074453;28;20537;-72
2024/01/28 04:09:08;;;;;;;1.70;0.67;;;;;;;-0.08;100.00;102998.47;5074104;28;20413;-72
2024/01/28 04:11:34;;;;;;;4.57;1.80;;;;;;;-0.09;100.00;102993.31;5074138;28;20453;-71
2024/01/28 04:14:01;;;;;;;2.60;1.47;;;;;;;-0.09;100.00;102999.50;5074196;28;20437;-71
2024/01/28 04:16:28;;;;;;;2.00;0.83;;;;;;;-0.16;100.00;103000.34;5074187;28;20465;-72
2024/01/28 04:18:56;;;;;;;1.50;0.30;;;;;;;-0.27;100.00;102993.50;5074241;28;20513;-71
2024/01/28 04:21:24;;;;;;;2.37;1.27;;;;;;;-0.24;100.00;102997.69;5074247;28;20446;-72
2024/01/28 04:23:52;;;;;;;1.70;0.50;;;;;;;-0.18;100.00;103000.47;5073953;28;20928;-72
2024/01/28 04:26:19;;;;;;;2.17;0.87;;;;;;;-0.14;100.00;103000.97;5074121;28;20442;-72
2024/01/28 04:28:46;;;;;;;11.63;0.67;;;;;;;-0.17;100.00;103006.66;5073750;28;20889;-72
2024/01/28 04:31:13;;;;;;;1.60;0.30;;;;;;;-0.16;100.00;103011.81;5073684;28;20834;-72
2024/01/28 04:33:41;;;;;;;2.10;0.70;;;;;;;-0.12;100.00;103002.47;5073662;28;20445;-71
2024/01/28 04:36:08;;;;;;;2.47;1.73;;;;;;;-0.13;100.00;103008.00;5073697;28;20540;-71
2024/01/28 04:38:34;;;;;;;2.27;0.70;;;;;;;-0.20;100.00;103007.00;5073530;28;20469;-71
2024/01/28 04:41:04;;;;;;;2.00;1.17;;;;;;;-0.25;100.00;103007.50;5073900;28;20544;-71
2024/01/28 04:43:31;;;;;;;4.67;1.50;;;;;;;-0.21;100.00;103006.16;5073496;28;20980;-71
2024/01/28 04:45:58;;;;;;;1.63;0.50;;;;;;;-0.23;100.00;103016.13;5073592;28;20421;-71
2024/01/28 04:48:24;;;;;;;2.13;1.20;;;;;;;-0.32;100.00;103010.00;5073790;28;20441;-71
2024/01/28 04:50:51;;;;;;;1.80;0.67;;;;;;;-0.35;100.00;103005.03;5073166;28;20506;-72
2024/01/28 04:53:18;;;;;;;2.47;1.67;;;;;;;-0.41;100.00;103015.50;5073358;28;20891;-72
2024/01/28 04:55:45;;;;;;;1.57;0.40;;;;;;;-0.38;100.00;103015.19;5073252;28;20441;-71
2024/01/28 04:58:13;;;;;;;1.60;0.40;;;;;;;-0.41;100.00;103026.16;5072871;28;20451;-71
2024/01/28 05:00:39;;;;;;;1.60;0.50;;;;;;;-0.36;100.00;103016.66;5072983;28;21007;-71
2024/01/28 05:03:06;;;;;;;1.80;0.70;;;;;;;-0.37;100.00;103017.66;5073283;28;20457;-71
2024/01/28 05:05:32;;;;;;;2.00;0.90;;;;;;;-0.39;100.00;103019.66;5073905;28;20526;-71
2024/01/28 05:07:59;;;;;;;2.40;1.50;;;;;;;-0.41;100.00;103024.31;5073268;28;21044;-71
2024/01/28 05:10:26;;;;;;;1.90;0.80;;;;;;;-0.48;100.00;103015.34;5072999;28;20433;-71
2024/01/28 05:12:52;;;;;;;1.60;0.50;;;;;;;-0.45;100.00;103020.31;5073304;28;20468;-71
2024/01/28 05:15:20;;;;;;;2.10;1.17;;;;;;;-0.46;100.00;103026.66;5073248;28;20437;-71
2024/01/28 05:17:47;;;;;;;2.20;0.53;;;;;;;-0.59;100.00;103021.81;5072889;28;20857;-71
2024/01/28 05:20:14;;;;;;;2.80;1.13;;;;;;;-0.52;100.00;103027.34;5073399;28;20483;-72
2024/01/28 05:22:41;;;;;;;3.60;0.87;;;;;;;-0.51;100.00;103027.16;5073423;28;20526;-72
2024/01/28 05:25:09;;;;;;;1.70;0.60;;;;;;;-0.52;100.00;103025.50;5073456;28;20465;-72
2024/01/28 05:27:36;;;;;;;1.70;0.60;;;;;;;-0.48;100.00;103023.34;5072855;28;20452;-72
2024/01/28 05:30:04;;;;;;;1.87;0.63;;;;;;;-0.47;100.00;103034.81;5073371;28;20534;-71
2024/01/28 05:32:32;;;;;;;2.90;1.23;;;;;;;-0.54;100.00;103029.31;5073411;28;20821;-71
2024/01/28 05:35:01;;;;;;;2.63;0.80;;;;;;;-0.52;100.00;103030.00;5072721;28;20937;-71
2024/01/28 05:37:28;;;;;;;2.07;0.70;;;;;;;-0.53;100.00;103029.16;5072805;28;20467;-71
2024/01/28 05:39:55;;;;;;;1.50;0.30;;;;;;;-0.58;100.00;103027.97;5073027;28;21070;-71
2024/01/28 05:42:21;;;;;;;1.90;0.90;;;;;;;-0.59;100.00;103028.97;5073053;28;20490;-71
2024/01/28 05:44:48;;;;;;;1.60;0.40;;;;;;;-0.57;100.00;103032.31;5085810;22;20555;-69
2024/01/28 05:47:14;;;;;;;1.53;0.40;;;;;;;-0.58;100.00;103030.63;5073312;28;20476;-69
2024/01/28 05:49:42;;;;;;;1.70;0.60;;;;;;;-0.59;100.00;103034.31;5073250;28;20443;-70
2024/01/28 05:52:09;;;;;;;1.80;0.70;;;;;;;-0.53;100.00;103039.81;5072903;28;20500;-70
2024/01/28 05:54:41;;;;;;;2.00;0.63;;;;;;;-0.61;100.00;103031.00;5072944;28;20469;-70
2024/01/28 05:57:08;;;;;;;1.50;0.30;;;;;;;-0.61;100.00;103038.97;5072911;28;20429;-70
2024/01/28 05:59:34;;;;;;;1.60;0.40;;;;;;;-0.54;100.00;103042.63;5073107;28;20517;-70
2024/01/28 06:02:01;;;;;;;1.90;0.70;;;;;;;-0.49;100.00;103048.28;5072848;28;20989;-70
2024/01/28 06:04:28;;;;;;;1.50;0.40;;;;;;;-0.46;100.00;103045.28;5072819;28;20451;-69
2024/01/28 06:06:56;;;;;;;3.50;2.40;;;;;;;-0.56;100.00;103045.47;5072621;28;20929;-69
2024/01/28 06:09:22;;;;;;;1.80;0.50;;;;;;;-0.51;100.00;103045.78;5073743;28;20465;-69
2024/01/28 06:11:49;;;;;;;3.00;0.63;;;;;;;-0.51;100.00;103048.44;5075901;28;21036;-69
2024/01/28 06:14:16;;;;;;;2.53;1.00;;;;;;;-0.54;100.00;103055.94;5076337;28;20445;-69
2024/01/28 06:16:42;;;;;;;1.60;0.40;;;;;;;-0.59;100.00;103045.78;5076262;28;20624;-69
2024/01/28 06:19:09;;;;;;;4.63;1.33;;;;;;;-0.63;100.00;103048.94;5076183;28;20798;-69
2024/01/28 06:21:35;;;;;;;2.30;1.27;;;;;;;-0.58;100.00;103044.78;5075753;28;20826;-70
2024/01/28 06:24:03;;;;;;;1.70;0.70;;;;;;;-0.65;100.00;103037.63;5075961;28;20980;-70
2024/01/28 06:26:32;;;;;;;2.20;0.80;;;;;;;-0.64;100.00;103039.28;5076011;28;20491;-70
2024/01/28 06:28:58;;;;;;;2.47;1.00;;;;;;;-0.68;100.00;103040.63;5076346;28;20502;-70
2024/01/28 06:31:25;;;;;;;2.43;1.43;;;;;;;-0.73;100.00;103042.94;5075603;28;20437;-70
2024/01/28 06:33:52;;;;;;;2.33;0.80;;;;;;;-0.76;100.00;103044.94;5076065;28;20445;-70
2024/01/28 06:36:21;;;;;;;1.60;0.60;;;;;;;-0.85;100.00;103032.63;5075961;28;20468;-70
2024/01/28 06:38:47;;;;;;;1.60;0.60;;;;;;;-0.78;100.00;103033.63;5075846;28;20818;-69
2024/01/28 06:41:16;;;;;;;4.27;0.97;;;;;;;-0.73;100.00;103037.63;5075908;28;20507;-69
2024/01/28 06:43:43;;;;;;;1.70;0.60;;;;;;;-0.82;100.00;103042.94;5075906;28;20540;-69
2024/01/28 06:46:11;;;;;;;1.87;0.60;;;;;;;-0.94;100.00;103038.09;5075452;28;20894;-70
2024/01/28 06:48:38;;;;;;;2.20;0.90;;;;;;;-0.88;100.00;103035.63;5076055;28;20533;-70
2024/01/28 06:51:05;;;;;;;1.60;0.50;;;;;;;-0.82;100.00;103029.63;5075287;28;20522;-70
2024/01/28 06:53:32;;;;;;;3.60;2.00;;;;;;;-0.83;100.00;103038.63;5075803;28;20464;-70
2024/01/28 06:55:59;;;;;;;1.87;0.67;;;;;;;-0.84;100.00;103036.97;5075481;28;20439;-70
2024/01/28 06:58:27;;;;;;;2.10;0.57;;;;;;;-0.80;100.00;103040.97;5075471;28;20536;-71
2024/01/28 07:00:54;;;;;;;1.60;0.40;;;;;;;-0.84;100.00;103039.63;5075220;28;20477;-71
2024/01/28 07:03:21;;;;;;;2.03;0.83;;;;;;;-0.80;100.00;103037.44;5075402;28;20467;-71
2024/01/28 07:05:47;;;;;;;1.90;1.07;;;;;;;-0.82;100.00;103034.13;5075758;28;20495;-70
2024/01/28 07:08:14;;;;;;;1.50;0.30;;;;;;;-0.79;100.00;103034.63;5075657;28;20441;-70
2024/01/28 07:10:41;;;;;;;2.47;1.43;;;;;;;-0.87;100.00;103026.66;5075654;28;20532;-70
2024/01/28 07:13:08;;;;;;;5.10;0.97;;;;;;;-0.84;100.00;103026.31;5075341;28;20655;-74
2024/01/28 07:15:36;;;;;;;9.20;0.93;;;;;;;-0.86;100.00;103030.97;5075114;28;20540;-72
2024/01/28 07:18:03;;;;;;;2.70;1.07;;;;;;;-0.86;100.00;103019.50;5074771;28;20941;-71
2024/01/28 07:20:30;;;;;;;1.80;0.80;;;;;;;-0.81;100.00;103019.81;5075189;28;20569;-71
2024/01/28 07:22:56;;;;;;;1.57;0.30;;;;;;;-0.81;100.00;103019.81;5074939;28;20540;-71
2024/01/28 07:25:23;;;;;;;1.67;0.43;;;;;;;-0.77;100.00;103015.84;5074638;28;21007;-71
2024/01/28 07:27:49;;;;;;;5.23;0.80;;;;;;;-0.70;100.00;103018.69;5074651;28;20472;-70
2024/01/28 07:30:16;;;;;;;2.67;1.53;;;;;;;-0.68;100.00;103012.19;5074540;28;20921;-67
2024/01/28 07:32:44;;;;;;;1.70;0.60;;;;;;;-0.69;100.00;103023.00;5074838;28;20467;-68
2024/01/28 07:35:11;;;;;;;11.80;1.40;;;;;;;-0.67;100.00;103032.47;5074762;28;20441;-69
2024/01/28 07:37:37;;;;;;;2.30;1.73;;;;;;;-0.69;100.00;103036.31;5074979;28;20528;-69
2024/01/28 07:40:05;;;;;;;1.70;0.73;;;;;;;-0.67;100.00;103029.81;5074527;28;20481;-69
2024/01/28 07:42:32;;;;;;;4.70;2.00;;;;;;;-0.57;100.00;103030.50;5074442;28;20504;-69
2024/01/28 07:44:58;;;;;;;1.50;0.40;;;;;;;-0.59;100.00;103035.13;5074068;28;20972;-69
2024/01/28 07:47:25;;;;;;;1.80;0.97;;;;;;;-0.57;100.00;103040.31;5074473;28;20921;-69
2024/01/28 07:49:53;;;;;;;2.47;1.90;;;;;;;-0.47;100.00;103046.28;5074375;28;20449;-69
2024/01/28 07:52:20;;;;;;;2.13;0.70;;;;;;;-0.43;100.00;103044.97;5074547;28;20466;-69
2024/01/28 07:54:47;;;;;;;1.70;0.50;;;;;;;-0.45;100.00;103040.78;5074449;28;20444;-69
2024/01/28 07:57:13;;;;;;;2.13;0.93;;;;;;;-0.45;100.00;103040.78;5074293;28;20452;-69
2024/01/28 07:59:40;;;;;;;2.37;1.10;;;;;;;-0.44;100.00;103042.44;5074228;28;20447;-69
2024/01/28 08:02:07;;;;;;;2.57;1.33;;;;;;;-0.40;100.00;103041.97;5074482;28;20467;-69
2024/01/28 08:04:34;;;;;;;1.83;0.50;;;;;;;-0.39;100.00;103043.63;5074220;28;20446;-69
2024/01/28 08:07:02;;;;;;;1.73;0.70;;;;;;;-0.31;100.00;103043.63;5074033;28;20473;-69
2024/01/28 08:09:31;;;;;;;2.07;1.03;;;;;;;-0.23;100.00;103036.63;5074365;28;20444;-69
2024/01/28 08:11:57;;;;;;;13.90;1.33;;;;;;;-0.19;100.00;103035.28;5074398;28;20465;-69
2024/01/28 08:14:27;;;;;;;1.63;0.53;;;;;;;-0.12;100.00;103031.78;5074457;28;20546;-69
2024/01/28 08:16:54;;;;;;;1.57;0.40;;;;;;;-0.09;100.00;103028.78;5074090;28;20491;-69
2024/01/28 08:19:20;;;;;;;1.60;0.43;;;;;;;-0.07;100.00;103032.09;5074452;28;20468;-70
2024/01/28 08:21:48;;;;;;;1.60;0.57;;;;;;;-0.10;100.00;103031.59;5074199;28;20481;-70
2024/01/28 08:24:16;;;;;;;2.37;1.10;;;;;;;-0.02;100.00;103031.59;5073972;28;20468;-70
2024/01/28 08:26:43;;;;;;;2.20;0.90;;;;;;;0.05;100.00;103035.25;5074531;28;20491;-70
2024/01/28 08:29:09;;;;;;;1.90;0.80;;;;;;;0.16;100.00;103034.88;5074552;28;20940;-70
2024/01/28 08:31:36;;;;;;;3.03;0.90;;;;;;;0.23;100.00;103035.03;5074171;28;21012;-69
2024/01/28 08:34:03;;;;;;;1.90;1.03;;;;;;;0.32;100.00;103038.50;5074420;28;20491;-70
2024/01/28 08:36:29;;;;;;;1.93;0.63;;;;;;;0.38;100.00;103035.97;5073903;28;20459;-70
2024/01/28 08:38:56;;;;;;;1.70;0.50;;;;;;;0.46;100.00;103037.78;5073753;28;20513;-73
2024/01/28 08:41:24;;;;;;;5.60;1.23;;;;;;;0.56;100.00;103029.56;5074112;28;20562;-71
2024/01/28 08:43:51;;;;;;;9.40;1.43;;;;;;;0.65;100.00;103040.00;5073764;28;20544;-69
2024/01/28 08:46:17;;;;;;;1.57;0.40;;;;;;;0.79;100.00;103042.94;5073591;28;20460;-72
2024/01/28 08:48:44;;;;;;;2.63;1.43;;;;;;;0.87;100.00;103048.25;5073942;28;20437;-69
2024/01/28 08:51:10;;;;;;;2.20;1.33;;;;;;;0.96;100.00;103047.19;5074816;28;20523;-69
2024/01/28 08:53:37;;;;;;;1.60;0.50;;;;;;;1.01;100.00;103040.31;5074684;28;20529;-69
2024/01/28 08:56:05;;;;;;;2.03;0.90;;;;;;;1.10;100.00;103038.41;5074419;28;20975;-69
2024/01/28 08:58:33;;;;;;;1.80;0.60;;;;;;;1.17;100.00;103033.22;5074713;28;20490;-69
2024/01/28 09:00:59;;;;;;;2.23;0.70;;;;;;;1.30;100.00;103022.78;5074417;28;20580;-70
2024/01/28 09:03:26;;;;;;;3.30;1.60;;;;;;;1.42;100.00;103032.03;5075179;28;20465;-70
2024/01/28 09:05:53;;;;;;;3.30;1.00;;;;;;;1.56;100.00;103032.25;5074094;28;20468;-70
2024/01/28 09:08:19;;;;;;;1.93;0.50;;;;;;;1.68;100.00;103045.00;5074156;28;20524;-70
2024/01/28 09:10:46;;;;;;;4.47;1.83;;;;;;;1.80;100.00;103063.25;5073752;28;20937;-70
2024/01/28 09:13:13;;;;;;;2.33;1.23;;;;;;;1.85;100.00;103061.69;5073483;28;20457;-71
2024/01/28 09:15:41;;;;;;;2.13;1.13;;;;;;;1.99;100.00;103052.03;5073668;28;20448;-71
2024/01/28 09:18:07;;;;;;;1.80;0.47;;;;;;;2.10;100.00;103045.41;5074176;28;20512;-71
2024/01/28 09:20:34;;;;;;;3.70;1.23;;;;;;;2.16;100.00;103034.81;5073200;28;20523;-70
2024/01/28 09:23:04;;;;;;;1.70;0.60;;;;;;;2.27;100.00;103026.31;5074064;28;20485;-69
2024/01/28 09:25:32;;;;;;;2.60;0.80;;;;;;;2.38;100.00;103029.53;5073533;28;20481;-67
2024/01/28 09:27:59;;;;;;;2.03;0.80;;;;;;;2.53;100.00;103041.91;5073592;28;20461;-68
2024/01/28 09:30:26;;;;;;;2.43;0.80;;;;;;;2.57;100.00;103050.38;5073607;28;20525;-68
2024/01/28 09:32:54;;;;;;;2.47;1.30;;;;;;;2.62;100.00;103055.19;5073901;28;20544;-68
2024/01/28 09:35:21;;;;;;;1.73;0.60;;;;;;;2.66;100.00;103059.97;5073497;28;20469;-69
2024/01/28 09:37:48;;;;;;;1.80;0.63;;;;;;;2.70;100.00;103063.94;5073466;28;20524;-69
2024/01/28 09:40:15;;;;;;;3.70;1.40;;;;;;;2.80;100.00;103070.84;5072829;28;20526;-69
2024/01/28 09:42:47;;;;;;;2.57;1.10;;;;;;;2.85;100.00;103058.53;5073136;28;20601;-68
2024/01/28 09:45:15;;;;;;;2.60;1.33;;;;;;;2.91;100.00;103051.59;5075444;28;20532;-68
2024/01/28 09:47:43;;;;;;;2.77;1.20;;;;;;;2.91;100.00;103052.41;5077149;28;20936;-68
2024/01/28 09:50:12;;;;;;;3.20;2.10;;;;;;;2.97;100.00;103058.88;5077160;28;20449;-67
2024/01/28 09:52:39;;;;;;;3.50;1.70;;;;;;;3.05;100.00;103045.34;5076688;28;20463;-67
2024/01/28 09:55:06;;;;;;;8.03;1.80;;;;;;;3.14;100.00;103046.91;5077040;28;20528;-67
2024/01/28 09:57:33;;;;;;;4.90;1.63;;;;;;;3.26;100.00;103026.63;5076595;28;20437;-67
2024/01/28 10:00:00;;;;;;;5.10;1.37;;;;;;;3.38;100.00;103039.53;5077829;28;20941;-67
2024/01/28 10:02:27;;;;;;;1.90;0.60;;;;;;;3.47;100.00;103043.72;5076199;28;20484;-71
2024/01/28 10:04:55;;;;;;;5.87;1.40;;;;;;;3.54;100.00;103039.22;5076591;28;20441;-70
2024/01/28 10:07:23;;;;;;;2.57;0.87;;;;;;;3.61;100.00;103039.31;5076407;28;20473;-70
2024/01/28 10:09:50;;;;;;;3.60;1.97;;;;;;;3.70;100.00;103033.59;5076079;28;20532;-70
2024/01/28 10:12:18;;;;;;;2.13;1.10;;;;;;;3.86;99.91;103031.66;5075962;28;20533;-70
2024/01/28 10:14:50;;;;;;;2.67;1.03;;;;;;;4.03;99.22;103035.72;5076283;28;20528;-71
2024/01/28 10:17:17;;;;;;;5.37;2.37;;;;;;;4.17;97.17;103034.75;5067603;28;20509;-68
2024/01/28 10:19:44;;;;;;;4.70;1.20;;;;;;;4.20;96.00;103039.72;5041026;28;20482;-68
2024/01/28 10:22:11;;;;;;;1.70;0.40;;;;;;;4.25;95.93;103034.59;5036240;28;20505;-68
2024/01/28 10:24:42;;;;;;;5.70;1.40;;;;;;;4.34;94.87;103037.09;5036263;28;20474;-68
2024/01/28 10:27:09;;;;;;;7.80;1.93;;;;;;;4.35;94.26;103042.28;5037378;28;20424;-69
2024/01/28 10:29:36;;;;;;;3.33;1.20;;;;;;;4.50;94.41;103039.47;5036088;28;20522;-68
2024/01/28 10:32:03;;;;;;;3.03;1.40;;;;;;;4.69;93.23;103040.56;5044055;28;20986;-68
2024/01/28 10:34:30;;;;;;;2.10;0.87;;;;;;;4.77;91.47;103035.00;5055932;28;20529;-68
2024/01/28 10:36:57;;;;;;;2.43;0.90;;;;;;;4.80;91.22;103030.06;5056559;28;20476;-68
2024/01/28 10:39:25;;;;;;;2.43;0.93;;;;;;;4.89;90.92;103033.41;5056425;28;20518;-68
2024/01/28 10:41:56;;;;;;;2.20;0.87;;;;;;;4.96;90.41;103020.84;5055520;28;20856;-68
2024/01/28 10:44:24;;;;;;;4.20;1.00;;;;;;;5.04;89.69;103004.50;5055793;28;20455;-68
2024/01/28 10:46:54;;;;;;;4.07;1.27;;;;;;;5.16;89.35;103001.22;5055713;28;20452;-69
2024/01/28 10:49:27;;;;;;;3.53;1.20;;;;;;;5.19;88.47;103007.03;5055292;28;20446;-68
2024/01/28 10:51:57;;;;;;;3.50;1.53;;;;;;;5.28;88.43;103002.28;5053509;28;20443;-68
2024/01/28 10:54:24;;;;;;;4.17;1.03;;;;;;;5.43;88.18;103002.06;5046676;28;20477;-69
2024/01/28 10:56:54;;;;;;;3.47;1.70;;;;;;;5.55;87.06;102995.06;5054970;28;20517;-68
2024/01/28 10:59:21;;;;;;;8.20;0.67;;;;;;;5.66;85.52;103001.66;5049307;28;20907;-68
2024/01/28 11:01:49;;;;;;;1.97;1.00;;;;;;;5.72;85.57;102995.47;5035688;28;20566;-68
2024/01/28 11:04:16;;;;;;;2.83;1.33;;;;;;;5.78;85.57;102979.28;5040700;28;20497;-67
2024/01/28 11:06:42;;;;;;;7.10;2.07;;;;;;;5.86;84.93;102980.13;5043407;28;20443;-69
2024/01/28 11:09:09;;;;;;;6.20;1.60;;;;;;;5.92;84.83;102982.81;5035121;28;20966;-67
2024/01/28 11:11:37;;;;;;;2.50;0.70;;;;;;;6.01;84.76;102983.41;5054947;28;20493;-68
2024/01/28 11:14:08;;;;;;;2.40;1.30;;;;;;;6.16;84.17;102981.31;5055608;28;20442;-68
2024/01/28 11:16:37;;;;;;;1.80;0.40;;;;;;;6.24;83.38;102978.41;5055278;28;20477;-68
2024/01/28 11:19:06;;;;;;;2.63;1.03;;;;;;;6.39;82.04;102972.75;5055386;28;20521;-68
2024/01/28 11:21:33;;;;;;;3.13;1.33;;;;;;;6.47;82.00;102969.81;5054375;28;20559;-68